Time;durP1;ratioP1;P1;durP2;ratioP2;P2;SDS_P1;SDS_P2;PMS_P1;PMS_P2;Temp;Humidity;BMP_temperature;BMP_pressure;BME280_temperature;BME280_humidity;BME280_pressure;Samples;Min_cycle;Max_cycle;Signal;HPM_P1;HPM_P2
2021/04/19 00:01:03;;;;;;;2.20;2.10;;;9.00;99.90;;;;;;5080992;28;20498;-62
2021/04/19 00:03:31;;;;;;;1.25;1.15;;;9.20;99.90;;;;;;5080909;28;20229;-61
2021/04/19 00:05:59;;;;;;;3.25;3.05;;;9.50;99.90;;;;;;5080801;28;20550;-61
2021/04/19 00:08:26;;;;;;;1.85;1.75;;;9.50;99.90;;;;;;5079282;28;20205;-60
2021/04/19 00:10:53;;;;;;;1.63;1.55;;;9.50;99.90;;;;;;5080981;28;20207;-62
2021/04/19 00:13:19;;;;;;;1.67;1.67;;;9.50;99.90;;;;;;5081055;28;20211;-61
2021/04/19 00:15:46;;;;;;;1.35;1.35;;;9.30;99.90;;;;;;5080588;28;20525;-60
2021/04/19 00:18:13;;;;;;;2.60;1.77;;;9.20;99.90;;;;;;5080233;28;20214;-62
2021/04/19 00:20:40;;;;;;;2.33;2.22;;;9.30;99.90;;;;;;5084109;28;20198;-62
2021/04/19 00:23:07;;;;;;;0.85;0.85;;;9.30;99.90;;;;;;5090296;28;20252;-61
2021/04/19 00:25:34;;;;;;;0.82;0.82;;;9.40;99.90;;;;;;5096536;28;20271;-60
2021/04/19 00:28:00;;;;;;;2.60;2.40;;;9.40;99.90;;;;;;5092308;28;20207;-61
2021/04/19 00:30:27;;;;;;;4.63;4.43;;;9.50;99.90;;;;;;5079448;28;20264;-60
2021/04/19 00:32:54;;;;;;;1.25;0.93;;;9.40;99.90;;;;;;5083567;28;20207;-60
2021/04/19 00:35:21;;;;;;;1.77;1.77;;;9.20;99.90;;;;;;5086287;28;20782;-60
2021/04/19 00:37:48;;;;;;;2.08;1.98;;;9.10;99.90;;;;;;5082155;28;20214;-63
2021/04/19 00:40:18;;;;;;;1.08;1.08;;;9.00;99.90;;;;;;5076933;28;20254;-60
2021/04/19 00:42:48;;;;;;;1.45;1.45;;;8.90;99.90;;;;;;5072311;28;20200;-61
2021/04/19 00:45:16;;;;;;;3.25;3.05;;;8.80;99.90;;;;;;5079695;28;20250;-61
2021/04/19 00:47:46;;;;;;;1.15;1.05;;;9.00;99.90;;;;;;5071002;28;20417;-60
2021/04/19 00:50:24;;;;;;;2.15;2.05;;;9.10;99.90;;;;;;5061495;28;20240;-61
2021/04/19 00:52:52;;;;;;;0.70;0.70;;;9.10;99.90;;;;;;5061452;28;20391;-60
2021/04/19 00:55:19;;;;;;;3.10;2.83;;;9.10;99.90;;;;;;5062121;28;20211;-60
2021/04/19 00:57:46;;;;;;;3.38;3.15;;;8.90;99.90;;;;;;5071024;28;20211;-61
2021/04/19 01:00:25;;;;;;;1.08;1.08;;;8.80;99.90;;;;;;5091178;28;20206;-60
2021/04/19 01:02:52;;;;;;;1.10;1.10;;;8.50;99.90;;;;;;5087641;28;20215;-60
2021/04/19 01:05:25;;;;;;;1.48;1.42;;;8.40;99.90;;;;;;5079732;28;20249;-61
2021/04/19 01:07:52;;;;;;;2.35;2.25;;;8.60;99.90;;;;;;5076169;28;20208;-60
2021/04/19 01:10:19;;;;;;;2.25;2.15;;;8.60;99.90;;;;;;5076857;28;20562;-62
2021/04/19 01:12:46;;;;;;;0.60;0.60;;;8.60;99.90;;;;;;5078540;28;20207;-60
2021/04/19 01:15:14;;;;;;;1.42;1.42;;;8.70;99.90;;;;;;5087829;28;20214;-62
2021/04/19 01:17:45;;;;;;;3.60;3.40;;;8.70;99.90;;;;;;5099297;28;20206;-60
2021/04/19 01:20:26;;;;;;;1.30;1.20;;;8.50;99.90;;;;;;5081803;28;20209;-61
2021/04/19 01:22:53;;;;;;;1.50;1.50;;;8.30;99.90;;;;;;5099428;28;20427;-60
2021/04/19 01:25:27;;;;;;;3.88;3.67;;;8.10;99.90;;;;;;5088517;28;20563;-61
2021/04/19 01:27:55;;;;;;;1.63;1.63;;;8.10;99.90;;;;;;5083240;28;20411;-61
2021/04/19 01:30:25;;;;;;;1.20;1.20;;;8.00;99.90;;;;;;5099352;28;20210;-62
2021/04/19 01:32:51;;;;;;;1.20;1.15;;;7.80;99.90;;;;;;5096169;28;20210;-61
2021/04/19 01:35:19;;;;;;;1.60;1.45;;;7.80;99.90;;;;;;5078799;28;20210;-60
2021/04/19 01:37:46;;;;;;;1.42;1.38;;;7.60;99.90;;;;;;5093224;28;20213;-61
2021/04/19 01:40:15;;;;;;;0.75;0.75;;;7.60;99.90;;;;;;5084529;28;20226;-61
2021/04/19 01:42:42;;;;;;;3.80;2.33;;;7.60;99.90;;;;;;5085463;28;20252;-61
2021/04/19 01:45:10;;;;;;;1.25;1.25;;;7.50;99.90;;;;;;5077414;28;20226;-62
2021/04/19 01:47:36;;;;;;;0.80;0.80;;;7.50;99.90;;;;;;5079226;28;20324;-60
2021/04/19 01:50:21;;;;;;;1.13;1.13;;;7.40;99.90;;;;;;5091983;28;20253;-61
2021/04/19 01:52:48;;;;;;;0.52;0.52;;;7.40;99.90;;;;;;5091466;28;20206;-60
2021/04/19 01:55:17;;;;;;;3.70;1.17;;;7.40;99.90;;;;;;5080472;28;20199;-60
2021/04/19 01:57:48;;;;;;;0.88;0.88;;;7.30;99.90;;;;;;5089776;28;20206;-61
2021/04/19 02:00:17;;;;;;;0.30;0.30;;;7.30;99.90;;;;;;5080921;28;20249;-60
2021/04/19 02:03:16;;;;;;;2.75;2.67;;;7.40;99.90;;;;;;5078714;28;20211;-60
2021/04/19 02:06:13;;;;;;;0.98;0.98;;;7.40;99.90;;;;;;5072104;28;20226;-61
2021/04/19 02:09:04;;;;;;;0.85;0.85;;;7.70;99.90;;;;;;5081903;28;20203;-60
2021/04/19 02:11:49;;;;;;;0.77;0.77;;;7.90;99.90;;;;;;5078841;28;20241;-62
2021/04/19 02:14:31;;;;;;;0.60;0.60;;;8.10;99.90;;;;;;5078750;28;20203;-60
2021/04/19 02:17:11;;;;;;;0.88;0.88;;;8.30;99.90;;;;;;5079863;28;20201;-62
2021/04/19 02:19:42;;;;;;;1.02;1.02;;;8.30;99.90;;;;;;5098995;28;20206;-60
2021/04/19 02:22:10;;;;;;;3.20;2.05;;;8.30;99.90;;;;;;5083320;28;20199;-60
2021/04/19 02:24:41;;;;;;;2.13;2.00;;;8.40;99.90;;;;;;5091950;28;20460;-60
2021/04/19 02:27:12;;;;;;;2.17;2.05;;;8.50;99.90;;;;;;5078364;28;20207;-60
2021/04/19 02:29:46;;;;;;;1.38;1.38;;;8.80;99.90;;;;;;5072085;28;20206;-60
2021/04/19 02:32:18;;;;;;;2.17;1.38;;;8.40;99.90;;;;;;5085093;28;20264;-60
2021/04/19 02:34:46;;;;;;;3.30;3.20;;;8.30;99.90;;;;;;5065678;28;20211;-60
2021/04/19 02:37:14;;;;;;;0.75;0.75;;;8.40;99.90;;;;;;5078408;28;20206;-60
2021/04/19 02:39:44;;;;;;;1.15;1.10;;;8.40;99.90;;;;;;5083554;28;20213;-60
2021/04/19 02:42:11;;;;;;;0.60;0.60;;;8.40;99.90;;;;;;5084348;28;20231;-61
2021/04/19 02:44:39;;;;;;;0.63;0.50;;;8.50;99.90;;;;;;5075168;28;20231;-60
2021/04/19 02:47:06;;;;;;;1.00;1.00;;;8.70;99.90;;;;;;5078570;28;20207;-60
2021/04/19 02:49:35;;;;;;;2.90;2.72;;;8.60;99.90;;;;;;5067353;28;20211;-60
2021/04/19 02:52:04;;;;;;;1.00;0.90;;;8.80;99.90;;;;;;5075293;28;20252;-63
2021/04/19 02:54:32;;;;;;;4.45;4.25;;;8.80;99.90;;;;;;5078714;28;20211;-60
2021/04/19 02:57:00;;;;;;;1.10;1.10;;;8.90;99.90;;;;;;5081557;28;20215;-60
2021/04/19 02:59:30;;;;;;;1.27;1.27;;;9.00;99.90;;;;;;5070525;28;20267;-61
2021/04/19 03:02:03;;;;;;;0.80;0.80;;;9.10;99.90;;;;;;5082644;28;20231;-61
2021/04/19 03:04:36;;;;;;;0.93;0.93;;;9.00;99.90;;;;;;5075253;28;20615;-61
2021/04/19 03:07:07;;;;;;;11.00;2.20;;;8.90;99.90;;;;;;5083789;28;20204;-61
2021/04/19 03:09:40;;;;;;;1.38;1.38;;;8.80;99.90;;;;;;5072340;28;20213;-61
2021/04/19 03:12:10;;;;;;;0.70;0.70;;;8.90;99.90;;;;;;5082006;28;20247;-61
2021/04/19 03:14:41;;;;;;;1.92;1.67;;;9.00;99.90;;;;;;5086245;28;20409;-59
2021/04/19 03:17:12;;;;;;;0.30;0.30;;;9.00;99.90;;;;;;5077980;28;20288;-60
2021/04/19 03:19:44;;;;;;;1.13;1.13;;;9.00;99.90;;;;;;5081690;28;20693;-61
2021/04/19 03:22:13;;;;;;;0.30;0.30;;;8.90;99.90;;;;;;5081656;28;20233;-60
2021/04/19 03:24:42;;;;;;;0.70;0.70;;;8.70;99.90;;;;;;5094007;28;20288;-61
2021/04/19 03:27:10;;;;;;;1.02;1.02;;;8.70;99.90;;;;;;5095323;28;20202;-60
2021/04/19 03:29:38;;;;;;;1.70;1.63;;;8.80;99.90;;;;;;5081890;28;20260;-60
2021/04/19 03:32:08;;;;;;;0.32;0.32;;;8.80;99.90;;;;;;5081211;28;20210;-61
2021/04/19 03:34:37;;;;;;;0.75;0.75;;;8.70;99.90;;;;;;5080767;28;20274;-60
2021/04/19 03:37:08;;;;;;;0.98;0.98;;;8.30;99.90;;;;;;5080914;28;20207;-61
2021/04/19 03:39:36;;;;;;;1.90;1.85;;;8.20;99.90;;;;;;5082983;28;20245;-61
2021/04/19 03:42:04;;;;;;;1.17;1.15;;;8.30;99.90;;;;;;5087803;28;20234;-60
2021/04/19 03:44:33;;;;;;;1.00;1.00;;;8.30;99.90;;;;;;5078144;28;20545;-61
2021/04/19 03:47:02;;;;;;;2.25;2.08;;;8.40;99.90;;;;;;5067657;28;20248;-62
2021/04/19 03:49:35;;;;;;;1.52;1.30;;;8.60;99.90;;;;;;5090371;28;20210;-60
2021/04/19 03:52:04;;;;;;;1.23;1.23;;;8.40;99.90;;;;;;5080618;28;20203;-61
2021/04/19 03:54:34;;;;;;;0.70;0.70;;;7.90;99.90;;;;;;5079744;28;20214;-61
2021/04/19 03:57:05;;;;;;;2.53;2.42;;;7.90;99.90;;;;;;5079606;28;20206;-60
2021/04/19 03:59:35;;;;;;;1.33;1.33;;;7.80;99.90;;;;;;5078174;28;20538;-60
2021/04/19 04:02:03;;;;;;;0.80;0.80;;;7.90;99.90;;;;;;5080625;28;20199;-61
2021/04/19 04:04:31;;;;;;;1.40;1.40;;;8.10;99.90;;;;;;5080662;28;20235;-60
2021/04/19 04:06:59;;;;;;;1.52;1.42;;;8.10;99.90;;;;;;5082876;28;20199;-60
2021/04/19 04:09:26;;;;;;;1.13;1.08;;;8.20;99.90;;;;;;5085454;28;20260;-61
2021/04/19 04:11:54;;;;;;;1.25;1.25;;;8.30;99.90;;;;;;5080918;28;20253;-60
2021/04/19 04:14:20;;;;;;;0.47;0.40;;;8.40;99.90;;;;;;5080857;28;20408;-61
2021/04/19 04:16:47;;;;;;;0.70;0.70;;;8.40;99.90;;;;;;5080418;28;20245;-60
2021/04/19 04:19:13;;;;;;;3.22;3.10;;;8.40;99.90;;;;;;5085708;28;20205;-59
2021/04/19 04:21:41;;;;;;;0.70;0.70;;;8.40;99.90;;;;;;5080768;28;20198;-61
2021/04/19 04:24:08;;;;;;;0.60;0.60;;;8.50;99.90;;;;;;5092497;28;20207;-61
2021/04/19 04:26:35;;;;;;;2.17;2.10;;;8.40;99.90;;;;;;5080399;28;20199;-60
2021/04/19 04:29:01;;;;;;;2.95;2.85;;;8.40;99.90;;;;;;5079210;28;20207;-63
2021/04/19 04:31:28;;;;;;;2.65;2.55;;;8.50;99.90;;;;;;5080386;28;20195;-62
2021/04/19 04:33:55;;;;;;;0.30;0.30;;;8.60;99.90;;;;;;5066489;28;20207;-60
2021/04/19 04:36:21;;;;;;;0.80;0.80;;;8.50;99.90;;;;;;5079633;28;20658;-60
2021/04/19 04:38:48;;;;;;;1.15;1.15;;;8.70;99.90;;;;;;5080979;28;20278;-62
2021/04/19 04:41:14;;;;;;;1.08;1.08;;;8.60;99.90;;;;;;5087470;28;20433;-61
2021/04/19 04:43:42;;;;;;;1.77;1.73;;;8.70;99.90;;;;;;5080030;28;20531;-61
2021/04/19 04:46:26;;;;;;;0.80;0.80;;;8.60;99.90;;;;;;5076283;28;20241;-61
2021/04/19 04:49:02;;;;;;;0.98;0.98;;;8.80;99.90;;;;;;5067388;28;20209;-60
2021/04/19 04:51:31;;;;;;;0.75;0.75;;;8.80;99.90;;;;;;5075976;28;20234;-61
2021/04/19 04:54:24;;;;;;;0.50;0.50;;;8.70;99.90;;;;;;5078977;28;20271;-61
2021/04/19 04:56:53;;;;;;;1.25;1.23;;;8.60;99.90;;;;;;5078206;28;20210;-60
2021/04/19 04:59:22;;;;;;;0.50;0.50;;;8.50;99.90;;;;;;5080864;28;20199;-62
2021/04/19 05:01:49;;;;;;;1.75;1.70;;;8.60;99.90;;;;;;5077291;28;20208;-61
2021/04/19 05:04:17;;;;;;;1.65;1.60;;;8.70;99.90;;;;;;5079332;28;20246;-61
2021/04/19 05:06:45;;;;;;;1.00;1.00;;;8.80;99.90;;;;;;5078072;28;20547;-61
2021/04/19 05:09:11;;;;;;;1.40;1.30;;;8.90;99.90;;;;;;5079405;28;20559;-61
2021/04/19 05:11:42;;;;;;;2.97;2.80;;;8.80;99.90;;;;;;5077550;28;20206;-61
2021/04/19 05:14:09;;;;;;;0.70;0.70;;;8.80;99.90;;;;;;5079181;28;20523;-62
2021/04/19 05:16:35;;;;;;;2.65;2.03;;;8.70;99.90;;;;;;5078994;28;20200;-61
2021/04/19 05:19:04;;;;;;;2.05;1.95;;;8.70;99.90;;;;;;5078311;28;20196;-61
2021/04/19 05:21:32;;;;;;;0.50;0.50;;;8.80;99.90;;;;;;5081022;28;20230;-60
2021/04/19 05:23:59;;;;;;;2.17;2.05;;;8.90;99.90;;;;;;5090526;28;20225;-61
2021/04/19 05:26:26;;;;;;;0.80;0.80;;;8.80;99.90;;;;;;5087022;28;20234;-63
2021/04/19 05:28:53;;;;;;;0.40;0.40;;;8.70;99.90;;;;;;5084599;28;20213;-60
2021/04/19 05:31:21;;;;;;;1.25;1.25;;;8.60;99.90;;;;;;5075926;28;20244;-60
2021/04/19 05:33:53;;;;;;;1.40;1.40;;;8.70;99.90;;;;;;5081496;28;20228;-60
2021/04/19 05:36:23;;;;;;;2.00;1.90;;;8.70;99.90;;;;;;5080563;28;20210;-61
2021/04/19 05:38:50;;;;;;;2.53;2.42;;;8.70;99.90;;;;;;5076498;28;20394;-61
2021/04/19 05:41:18;;;;;;;2.95;2.85;;;8.60;99.90;;;;;;5086327;28;20452;-62
2021/04/19 05:43:45;;;;;;;0.98;0.98;;;8.90;99.90;;;;;;5087020;28;20257;-60
2021/04/19 05:46:16;;;;;;;0.70;0.70;;;9.10;99.90;;;;;;5078794;28;20309;-61
2021/04/19 05:48:43;;;;;;;1.77;1.77;;;9.00;99.90;;;;;;5058754;28;20208;-61
2021/04/19 05:51:21;;;;;;;1.42;1.42;;;9.10;99.90;;;;;;5074924;28;20246;-62
2021/04/19 05:53:51;;;;;;;0.40;0.40;;;9.40;99.90;;;;;;5072518;28;20211;-61
2021/04/19 05:56:28;;;;;;;1.60;1.58;;;9.60;99.90;;;;;;5078510;28;20428;-61
2021/04/19 05:59:13;;;;;;;2.50;2.40;;;9.60;99.90;;;;;;5071861;28;20370;-61
2021/04/19 06:01:43;;;;;;;1.25;1.23;;;9.60;99.90;;;;;;5074294;28;20430;-60
2021/04/19 06:04:50;;;;;;;0.85;0.85;;;9.60;99.90;;;;;;5050592;28;20266;-62
2021/04/19 06:07:41;;;;;;;1.02;1.02;;;9.50;99.90;;;;;;5048960;28;20509;-60
2021/04/19 06:10:17;;;;;;;0.60;0.60;;;9.30;99.90;;;;;;5059892;28;20299;-61
2021/04/19 06:12:47;;;;;;;0.80;0.80;;;9.30;99.90;;;;;;5059152;28;20555;-62
2021/04/19 06:15:15;;;;;;;4.43;4.13;;;9.20;99.90;;;;;;5075077;28;20213;-60
2021/04/19 06:17:46;;;;;;;2.28;2.17;;;9.20;99.90;;;;;;5075100;28;20202;-61
2021/04/19 06:20:15;;;;;;;1.05;1.05;;;9.30;99.90;;;;;;5077786;28;20233;-61
2021/04/19 06:22:42;;;;;;;1.83;1.73;;;9.40;99.90;;;;;;5074486;28;20489;-60
2021/04/19 06:25:12;;;;;;;1.70;1.70;;;9.60;99.90;;;;;;5082121;28;20234;-61
2021/04/19 06:27:39;;;;;;;1.10;1.10;;;9.50;99.90;;;;;;5078277;28;20612;-61
2021/04/19 06:30:20;;;;;;;1.52;1.42;;;9.70;99.90;;;;;;5069596;28;20397;-62
2021/04/19 06:32:51;;;;;;;1.75;1.65;;;9.40;99.90;;;;;;5080831;28;20205;-61
2021/04/19 06:35:19;;;;;;;0.85;0.85;;;9.60;99.90;;;;;;5085125;28;20307;-62
2021/04/19 06:37:50;;;;;;;1.95;1.88;;;9.60;99.90;;;;;;5082160;28;20288;-62
2021/04/19 06:40:18;;;;;;;0.63;0.63;;;9.70;99.90;;;;;;5081916;28;20223;-61
2021/04/19 06:42:45;;;;;;;0.38;0.38;;;10.20;99.40;;;;;;5076695;28;20219;-62
2021/04/19 06:45:14;;;;;;;1.05;1.05;;;11.00;98.10;;;;;;5079191;28;20604;-62
2021/04/19 06:47:42;;;;;;;1.63;1.52;;;11.70;96.40;;;;;;5084142;28;20255;-61
2021/04/19 06:50:11;;;;;;;0.95;0.95;;;12.30;95.30;;;;;;5078684;28;20249;-61
2021/04/19 06:52:39;;;;;;;2.80;2.60;;;13.40;93.70;;;;;;5078767;28;20233;-62
2021/04/19 06:55:07;;;;;;;0.68;0.68;;;14.40;91.10;;;;;;5081327;28;20206;-62
2021/04/19 06:57:40;;;;;;;1.52;1.45;;;15.40;89.00;;;;;;5081934;28;20202;-62
2021/04/19 07:00:08;;;;;;;1.42;1.42;;;16.60;82.60;;;;;;5087750;28;20205;-62
2021/04/19 07:02:47;;;;;;;1.73;1.73;;;17.70;78.80;;;;;;5078875;28;20216;-61
2021/04/19 07:05:22;;;;;;;2.90;2.77;;;18.10;76.80;;;;;;5077788;28;20444;-61
2021/04/19 07:08:20;;;;;;;2.53;2.43;;;19.60;71.80;;;;;;5078155;28;20657;-62
2021/04/19 07:10:49;;;;;;;3.03;2.93;;;19.30;68.70;;;;;;5080278;28;20430;-62
2021/04/19 07:13:18;;;;;;;2.67;2.57;;;19.60;70.20;;;;;;5089998;28;20449;-62
2021/04/19 07:15:47;;;;;;;4.43;4.27;;;19.10;70.50;;;;;;5075477;28;20415;-63
2021/04/19 07:18:14;;;;;;;2.30;2.30;;;17.70;74.20;;;;;;5074862;28;20641;-62
2021/04/19 07:20:44;;;;;;;4.53;4.37;;;16.90;78.70;;;;;;5076474;28;20518;-63
2021/04/19 07:23:11;;;;;;;2.63;2.53;;;16.90;79.30;;;;;;5090744;28;20837;-62
2021/04/19 07:25:38;;;;;;;5.20;5.00;;;17.00;80.20;;;;;;5096759;28;20462;-62
2021/04/19 07:28:05;;;;;;;2.97;2.87;;;16.80;80.90;;;;;;5081694;28;20438;-62
2021/04/19 07:30:35;;;;;;;2.30;2.20;;;16.30;81.60;;;;;;5081400;28;20445;-63
2021/04/19 07:33:02;;;;;;;2.63;2.57;;;16.10;82.70;;;;;;5067953;28;20445;-62
2021/04/19 07:35:33;;;;;;;3.47;3.38;;;15.80;84.30;;;;;;5081274;28;20449;-61
2021/04/19 07:38:05;;;;;;;3.60;3.40;;;15.60;84.80;;;;;;5067209;28;20204;-60
2021/04/19 07:40:40;;;;;;;1.95;1.80;;;15.40;86.20;;;;;;5090257;28;20448;-61
2021/04/19 07:43:19;;;;;;;1.55;1.55;;;15.40;85.60;;;;;;5075076;28;20195;-61
2021/04/19 07:46:13;;;;;;;1.52;1.52;;;15.50;86.30;;;;;;5080574;28;20499;-61
2021/04/19 07:48:48;;;;;;;2.47;2.38;;;15.80;85.90;;;;;;5067056;28;20252;-62
2021/04/19 07:51:35;;;;;;;1.85;1.77;;;15.90;85.20;;;;;;5080617;28;20613;-61
2021/04/19 07:54:11;;;;;;;2.05;2.03;;;15.60;87.10;;;;;;5075922;28;20271;-62
2021/04/19 07:56:39;;;;;;;1.42;1.42;;;16.00;87.70;;;;;;5087262;28;20316;-62
2021/04/19 07:59:37;;;;;;;1.63;1.63;;;16.70;83.60;;;;;;5080704;28;20511;-61
2021/04/19 08:02:09;;;;;;;2.27;2.17;;;16.90;81.30;;;;;;5080068;28;20203;-63
2021/04/19 08:04:46;;;;;;;2.70;2.60;;;18.00;79.10;;;;;;5080881;28;20423;-61
2021/04/19 08:07:22;;;;;;;2.30;2.20;;;19.20;72.90;;;;;;5082041;28;20430;-62
2021/04/19 08:09:59;;;;;;;4.03;3.83;;;20.40;69.10;;;;;;5078866;28;20414;-62
2021/04/19 08:12:36;;;;;;;2.27;2.23;;;20.00;65.30;;;;;;5080520;28;20409;-62
2021/04/19 08:15:14;;;;;;;3.60;3.30;;;19.80;68.70;;;;;;5073060;28;20410;-62
2021/04/19 08:17:41;;;;;;;6.83;3.73;;;20.00;67.90;;;;;;5077416;28;20464;-62
2021/04/19 08:20:22;;;;;;;5.00;4.80;;;19.70;69.60;;;;;;5077227;28;20504;-61
2021/04/19 08:22:52;;;;;;;2.17;2.17;;;18.20;71.90;;;;;;5090136;28;20416;-62
2021/04/19 08:25:22;;;;;;;3.73;3.57;;;17.30;76.10;;;;;;5087220;28;20543;-62
2021/04/19 08:28:15;;;;;;;3.73;3.50;;;16.60;78.30;;;;;;5094086;28;20775;-61
2021/04/19 08:30:45;;;;;;;2.97;2.87;;;16.30;80.40;;;;;;5078913;28;20517;-61
2021/04/19 08:33:13;;;;;;;3.38;3.28;;;15.50;83.80;;;;;;5064981;28;20509;-63
2021/04/19 08:35:41;;;;;;;4.63;4.43;;;15.60;83.40;;;;;;5080206;28;20500;-61
2021/04/19 08:38:09;;;;;;;3.33;3.13;;;15.70;83.80;;;;;;5077465;28;20505;-63
2021/04/19 08:40:38;;;;;;;1.10;1.10;;;15.70;84.00;;;;;;5079441;28;20588;-62
2021/04/19 08:43:10;;;;;;;2.15;2.05;;;15.70;84.90;;;;;;5078840;28;20383;-62
2021/04/19 08:45:41;;;;;;;1.55;1.55;;;15.60;84.00;;;;;;5077484;28;20236;-61
2021/04/19 08:48:13;;;;;;;3.00;2.90;;;15.60;85.90;;;;;;5077515;28;20202;-62
2021/04/19 08:50:41;;;;;;;5.38;5.15;;;15.40;85.20;;;;;;5086089;28;20249;-62
2021/04/19 08:53:10;;;;;;;0.85;0.85;;;14.90;86.90;;;;;;5078094;28;20474;-62
2021/04/19 08:55:38;;;;;;;1.70;1.70;;;14.50;88.70;;;;;;5076624;28;20210;-62
2021/04/19 08:58:10;;;;;;;2.10;2.00;;;13.90;90.20;;;;;;5076469;28;20219;-62
2021/04/19 09:00:45;;;;;;;1.58;1.50;;;13.70;91.40;;;;;;5074867;28;20207;-61
2021/04/19 09:03:16;;;;;;;0.60;0.60;;;13.70;92.20;;;;;;5075953;28;20198;-60
2021/04/19 09:05:43;;;;;;;2.67;2.47;;;14.10;91.20;;;;;;5073191;28;20234;-61
2021/04/19 09:08:22;;;;;;;1.25;1.25;;;14.50;90.10;;;;;;5074006;28;20271;-61
2021/04/19 09:11:00;;;;;;;2.03;1.92;;;15.00;88.70;;;;;;5073687;28;20205;-61
2021/04/19 09:13:27;;;;;;;2.17;2.10;;;15.70;87.10;;;;;;5074830;28;20204;-61
2021/04/19 09:15:54;;;;;;;3.90;3.78;;;16.30;85.10;;;;;;5082684;28;20208;-60
2021/04/19 09:18:21;;;;;;;2.80;2.60;;;17.70;79.60;;;;;;5077570;28;20250;-61
2021/04/19 09:20:54;;;;;;;3.80;3.60;;;18.90;75.50;;;;;;5077541;28;20405;-62
2021/04/19 09:23:31;;;;;;;3.50;3.30;;;19.30;71.90;;;;;;5086848;28;20415;-62
2021/04/19 09:26:00;;;;;;;2.50;2.40;;;18.80;73.10;;;;;;5080332;28;20511;-62
2021/04/19 09:28:38;;;;;;;2.80;2.70;;;18.10;75.80;;;;;;5079089;28;20526;-62
2021/04/19 09:31:06;;;;;;;2.50;2.43;;;17.60;77.60;;;;;;5078735;28;20492;-62
2021/04/19 09:33:34;;;;;;;3.53;3.33;;;17.30;78.90;;;;;;5079052;28;20425;-62
2021/04/19 09:36:03;;;;;;;3.93;3.77;;;17.30;80.40;;;;;;5078327;28;20437;-61
2021/04/19 09:38:42;;;;;;;2.77;2.67;;;17.80;79.10;;;;;;5078469;28;20442;-62
2021/04/19 09:41:13;;;;;;;2.67;2.57;;;17.50;77.80;;;;;;5086550;28;20646;-62
2021/04/19 09:43:49;;;;;;;4.57;4.20;;;17.30;80.00;;;;;;5065460;28;20432;-62
2021/04/19 09:46:15;;;;;;;3.10;2.90;;;17.60;79.20;;;;;;5086395;28;20497;-63
2021/04/19 09:48:47;;;;;;;2.67;2.57;;;17.50;79.20;;;;;;5085419;28;20430;-61
2021/04/19 09:51:19;;;;;;;7.17;6.67;;;18.00;77.50;;;;;;5077703;28;20774;-62
2021/04/19 09:53:45;;;;;;;4.30;3.90;;;18.10;77.20;;;;;;5076081;28;20447;-62
2021/04/19 09:56:14;;;;;;;3.23;3.13;;;18.20;77.20;;;;;;5070937;28;20408;-62
2021/04/19 09:58:42;;;;;;;2.80;2.70;;;18.00;75.70;;;;;;5078888;28;20656;-62
2021/04/19 10:01:09;;;;;;;3.23;3.10;;;18.20;76.30;;;;;;5078115;28;20422;-63
2021/04/19 10:03:37;;;;;;;3.10;3.00;;;18.00;77.30;;;;;;5078062;28;20756;-62
2021/04/19 10:06:06;;;;;;;4.97;4.67;;;17.80;75.00;;;;;;5074698;28;20458;-62
2021/04/19 10:08:39;;;;;;;2.43;2.30;;;17.70;75.00;;;;;;5076716;28;20410;-62
2021/04/19 10:11:08;;;;;;;3.37;3.27;;;17.30;77.00;;;;;;5078380;28;20453;-63
2021/04/19 10:13:37;;;;;;;3.13;3.03;;;17.10;78.00;;;;;;5078193;28;20634;-62
2021/04/19 10:16:12;;;;;;;3.83;3.73;;;17.10;79.30;;;;;;5078427;28;20769;-63
2021/04/19 10:18:42;;;;;;;4.83;4.57;;;17.40;79.70;;;;;;5074609;28;20759;-63
2021/04/19 10:21:24;;;;;;;4.00;3.80;;;18.00;76.50;;;;;;5078627;28;20407;-62
2021/04/19 10:23:51;;;;;;;3.10;2.97;;;18.70;72.50;;;;;;5088023;28;20441;-63
2021/04/19 10:26:17;;;;;;;2.87;2.77;;;18.50;73.60;;;;;;5077824;28;20479;-62
2021/04/19 10:28:48;;;;;;;4.50;4.27;;;18.30;75.10;;;;;;5091501;28;20963;-63
2021/04/19 10:31:17;;;;;;;2.77;2.67;;;18.40;75.20;;;;;;5084292;28;20505;-63
2021/04/19 10:33:45;;;;;;;3.03;2.93;;;18.10;77.50;;;;;;5086460;28;20620;-62
2021/04/19 10:36:22;;;;;;;5.03;4.83;;;17.80;76.90;;;;;;5077811;28;20421;-62
2021/04/19 10:38:52;;;;;;;5.20;4.90;;;17.90;78.00;;;;;;5078135;28;20409;-62
2021/04/19 10:41:36;;;;;;;3.07;3.00;;;18.00;78.10;;;;;;5080828;28;20488;-63
2021/04/19 10:44:05;;;;;;;3.17;3.07;;;17.90;77.60;;;;;;5080288;28;20740;-64
2021/04/19 10:46:34;;;;;;;3.30;3.20;;;17.90;76.10;;;;;;5074880;28;20482;-62
2021/04/19 10:49:03;;;;;;;3.27;3.17;;;17.40;79.00;;;;;;5075358;28;20684;-62
2021/04/19 10:51:37;;;;;;;2.70;2.63;;;17.00;78.60;;;;;;5077517;28;20480;-66
2021/04/19 10:54:10;;;;;;;4.33;4.13;;;16.60;82.30;;;;;;5077853;28;20773;-63
2021/04/19 10:56:41;;;;;;;2.80;2.70;;;16.50;81.20;;;;;;5078404;28;20656;-63
2021/04/19 10:59:10;;;;;;;2.50;2.40;;;16.40;80.90;;;;;;5074799;28;20961;-61
2021/04/19 11:01:39;;;;;;;1.73;1.73;;;16.30;81.20;;;;;;5074850;28;20658;-63
2021/04/19 11:04:08;;;;;;;1.90;1.90;;;16.80;82.10;;;;;;5077917;28;20454;-61
2021/04/19 11:06:38;;;;;;;2.87;2.67;;;17.20;78.40;;;;;;5077706;28;20862;-62
2021/04/19 11:09:16;;;;;;;2.57;2.50;;;17.90;77.60;;;;;;5067319;28;20812;-62
2021/04/19 11:11:48;;;;;;;3.93;3.73;;;18.20;76.60;;;;;;5076880;28;20470;-62
2021/04/19 11:14:21;;;;;;;3.07;2.87;;;18.00;76.30;;;;;;5067848;28;20442;-63
2021/04/19 11:16:59;;;;;;;3.03;2.93;;;17.60;77.50;;;;;;5073917;28;20451;-62
2021/04/19 11:19:36;;;;;;;2.40;2.40;;;17.50;77.70;;;;;;5080464;28;20417;-63
2021/04/19 11:22:23;;;;;;;2.73;2.63;;;17.20;79.80;;;;;;5080746;28;20443;-62
2021/04/19 11:25:22;;;;;;;3.23;3.13;;;17.40;79.40;;;;;;5081054;28;20444;-62
2021/04/19 11:27:51;;;;;;;4.40;4.27;;;17.00;79.30;;;;;;5086453;28;20425;-61
2021/04/19 11:30:26;;;;;;;4.50;4.30;;;16.50;83.00;;;;;;5080649;28;20474;-63
2021/04/19 11:33:11;;;;;;;2.10;2.10;;;16.70;82.30;;;;;;5083729;28;20435;-62
2021/04/19 11:35:42;;;;;;;2.70;2.60;;;16.90;81.40;;;;;;5078899;28;20487;-63
2021/04/19 11:38:13;;;;;;;3.70;3.60;;;16.90;83.60;;;;;;5081820;28;20431;-62
2021/04/19 11:40:41;;;;;;;2.40;2.40;;;17.10;80.80;;;;;;5089344;28;20474;-63
2021/04/19 11:43:18;;;;;;;4.53;4.07;;;17.10;79.80;;;;;;5081019;28;20454;-62
2021/04/19 11:45:46;;;;;;;3.67;3.47;;;17.00;79.90;;;;;;5080366;28;20508;-63
2021/04/19 11:48:15;;;;;;;3.27;3.17;;;17.10;79.60;;;;;;5080447;28;20422;-63
2021/04/19 11:50:43;;;;;;;2.40;2.37;;;17.50;79.70;;;;;;5079379;28;20503;-62
2021/04/19 11:53:19;;;;;;;3.40;3.30;;;17.90;78.10;;;;;;5072605;28;21006;-64
2021/04/19 11:55:46;;;;;;;2.20;2.20;;;18.30;76.30;;;;;;5072237;28;20444;-62
2021/04/19 11:58:31;;;;;;;2.90;2.77;;;18.60;74.30;;;;;;5069923;28;20455;-63
2021/04/19 12:00:57;;;;;;;3.27;3.17;;;18.90;76.40;;;;;;5080571;28;20572;-63
2021/04/19 12:03:26;;;;;;;3.03;2.93;;;18.50;74.20;;;;;;5079333;28;20438;-64
2021/04/19 12:05:54;;;;;;;3.07;2.97;;;18.00;75.40;;;;;;5079475;28;20501;-62
2021/04/19 12:08:21;;;;;;;3.80;3.70;;;17.70;76.90;;;;;;5085990;28;20417;-62
2021/04/19 12:10:48;;;;;;;2.73;2.63;;;17.80;79.40;;;;;;5087179;28;20802;-63
2021/04/19 12:13:15;;;;;;;3.97;3.80;;;18.10;78.20;;;;;;5079276;28;20416;-64
2021/04/19 12:15:52;;;;;;;3.70;3.60;;;18.00;76.70;;;;;;5074044;28;20481;-62
2021/04/19 12:18:20;;;;;;;3.03;2.93;;;17.20;78.10;;;;;;5080839;28;20432;-62
2021/04/19 12:20:50;;;;;;;3.50;3.40;;;17.40;78.70;;;;;;5074160;28;20781;-63
2021/04/19 12:23:18;;;;;;;2.80;2.73;;;18.30;75.70;;;;;;5084488;28;20483;-62
2021/04/19 12:25:46;;;;;;;2.90;2.80;;;19.10;73.40;;;;;;5084407;28;20456;-62
2021/04/19 12:28:13;;;;;;;4.00;3.90;;;19.40;74.00;;;;;;5077800;28;20454;-63
2021/04/19 12:30:39;;;;;;;2.70;2.60;;;19.20;72.20;;;;;;5079594;28;20449;-63
2021/04/19 12:33:06;;;;;;;3.00;2.90;;;18.70;73.80;;;;;;5076584;28;20425;-63
2021/04/19 12:35:33;;;;;;;2.93;2.73;;;18.30;74.40;;;;;;5078470;28;20409;-62
2021/04/19 12:37:59;;;;;;;2.87;2.77;;;18.00;74.60;;;;;;5080246;28;20444;-63
2021/04/19 12:40:29;;;;;;;2.93;2.83;;;18.10;76.40;;;;;;5088181;28;20834;-63
2021/04/19 12:42:57;;;;;;;3.40;3.30;;;18.20;78.40;;;;;;5082803;28;20530;-62
2021/04/19 12:45:26;;;;;;;4.53;4.23;;;17.90;74.00;;;;;;5076097;28;20489;-63
2021/04/19 12:47:53;;;;;;;3.10;3.00;;;17.80;75.50;;;;;;5072608;28;20418;-62
2021/04/19 12:50:21;;;;;;;4.20;3.90;;;17.50;76.20;;;;;;5079426;28;20498;-64
2021/04/19 12:52:48;;;;;;;2.97;2.87;;;17.60;76.40;;;;;;5088739;28;20430;-62
2021/04/19 12:55:35;;;;;;;2.20;2.20;;;18.10;75.60;;;;;;5089782;28;20446;-63
2021/04/19 12:58:03;;;;;;;3.37;3.27;;;18.50;74.70;;;;;;5082347;28;20725;-63
2021/04/19 13:00:30;;;;;;;2.60;2.50;;;18.40;75.90;;;;;;5082534;28;20417;-62
2021/04/19 13:03:05;;;;;;;3.47;3.27;;;18.30;76.10;;;;;;5084239;28;20596;-63
2021/04/19 13:05:37;;;;;;;2.60;2.60;;;18.20;75.70;;;;;;5087200;28;20482;-61
2021/04/19 13:08:05;;;;;;;2.87;2.77;;;17.80;76.20;;;;;;5076240;28;20436;-64
2021/04/19 13:10:32;;;;;;;2.60;2.60;;;17.30;78.00;;;;;;5074174;28;20448;-63
2021/04/19 13:13:02;;;;;;;2.77;2.67;;;17.60;78.00;;;;;;5071037;28;20446;-62